Time;durP1;ratioP1;P1;durP2;ratioP2;P2;SDS_P1;SDS_P2;PMS_P1;PMS_P2;Temp;Humidity;BMP_temperature;BMP_pressure;BME280_temperature;BME280_humidity;BME280_pressure;Samples;Min_cycle;Max_cycle;Signal;HPM_P1;HPM_P2
2023/03/02 00:00:00;;;;;;;3.4;3.3;;;;;;;1.1;100.0;102220;;;;
2023/03/02 00:01:03;;;;;;;3.4;3.3;;;;;;;1.1;100.0;102220;;;;
2023/03/02 00:02:10;;;;;;;3.4;3.3;;;;;;;1.2;100.0;102220;;;;
2023/03/02 00:03:01;;;;;;;3.4;3.3;;;;;;;1.2;100.0;102220;;;;
2023/03/02 00:04:01;;;;;;;3.4;3.3;;;;;;;1.1;100.0;102220;;;;
2023/03/02 00:05:00;;;;;;;3.4;3.3;;;;;;;1.1;100.0;102220;;;;
2023/03/02 00:06:00;;;;;;;3.1;3.0;;;;;;;1.0;100.0;102210;;;;
2023/03/02 00:07:02;;;;;;;3.1;3.0;;;;;;;1.0;100.0;102210;;;;
2023/03/02 00:08:01;;;;;;;3.1;3.0;;;;;;;1.0;100.0;102220;;;;
2023/03/02 00:09:01;;;;;;;3.1;3.0;;;;;;;1.0;100.0;102220;;;;
2023/03/02 00:10:00;;;;;;;3.1;3.0;;;;;;;1.0;100.0;102220;;;;
2023/03/02 00:11:01;;;;;;;3.1;3.0;;;;;;;1.0;100.0;102220;;;;
2023/03/02 00:12:01;;;;;;;3.1;3.0;;;;;;;0.9;100.0;102210;;;;
2023/03/02 00:13:00;;;;;;;3.1;3.0;;;;;;;0.9;100.0;102210;;;;
2023/03/02 00:14:00;;;;;;;3.1;3.0;;;;;;;1.0;100.0;102210;;;;
2023/03/02 00:15:00;;;;;;;3.1;3.0;;;;;;;1.0;100.0;102210;;;;
2023/03/02 00:16:00;;;;;;;3.1;3.0;;;;;;;0.9;100.0;102210;;;;
2023/03/02 00:17:01;;;;;;;3.1;3.0;;;;;;;0.9;100.0;102210;;;;
2023/03/02 00:18:00;;;;;;;3.1;3.0;;;;;;;1.0;100.0;102210;;;;
2023/03/02 00:19:00;;;;;;;3.1;3.0;;;;;;;1.0;100.0;102210;;;;
2023/03/02 00:21:00;;;;;;;3.1;3.0;;;;;;;1.0;100.0;102200;;;;
2023/03/02 00:22:00;;;;;;;3.1;3.0;;;;;;;0.9;100.0;102200;;;;
2023/03/02 00:23:00;;;;;;;3.1;3.0;;;;;;;0.9;100.0;102200;;;;
2023/03/02 00:24:00;;;;;;;3.1;3.0;;;;;;;0.9;100.0;102210;;;;
2023/03/02 00:25:00;;;;;;;3.1;3.0;;;;;;;0.9;100.0;102210;;;;
2023/03/02 00:26:00;;;;;;;3.7;3.6;;;;;;;0.9;100.0;102210;;;;
2023/03/02 00:27:00;;;;;;;3.7;3.6;;;;;;;0.9;100.0;102210;;;;
2023/03/02 00:28:00;;;;;;;3.7;3.6;;;;;;;0.8;100.0;102210;;;;
2023/03/02 00:29:00;;;;;;;3.7;3.6;;;;;;;0.8;100.0;102210;;;;
2023/03/02 00:30:00;;;;;;;3.7;3.6;;;;;;;0.8;100.0;102210;;;;
2023/03/02 00:31:02;;;;;;;3.7;3.6;;;;;;;0.8;100.0;102210;;;;
2023/03/02 00:32:02;;;;;;;3.7;3.6;;;;;;;0.9;100.0;102210;;;;
2023/03/02 00:33:00;;;;;;;3.7;3.6;;;;;;;0.9;100.0;102210;;;;
2023/03/02 00:34:00;;;;;;;3.7;3.6;;;;;;;0.8;100.0;102210;;;;
2023/03/02 00:35:00;;;;;;;3.7;3.6;;;;;;;0.8;100.0;102210;;;;
2023/03/02 00:36:00;;;;;;;3.7;3.6;;;;;;;0.8;100.0;102220;;;;
2023/03/02 00:37:00;;;;;;;3.7;3.6;;;;;;;0.8;100.0;102220;;;;
2023/03/02 00:38:00;;;;;;;3.7;3.6;;;;;;;0.7;100.0;102210;;;;
2023/03/02 00:39:00;;;;;;;3.7;3.6;;;;;;;0.7;100.0;102210;;;;
2023/03/02 00:40:00;;;;;;;3.7;3.6;;;;;;;0.7;100.0;102210;;;;
2023/03/02 00:41:00;;;;;;;3.7;3.6;;;;;;;0.7;100.0;102210;;;;
2023/03/02 00:42:00;;;;;;;3.7;3.6;;;;;;;0.7;100.0;102220;;;;
2023/03/02 00:43:00;;;;;;;3.7;3.6;;;;;;;0.7;100.0;102220;;;;
2023/03/02 00:44:00;;;;;;;3.7;3.6;;;;;;;0.8;100.0;102210;;;;
2023/03/02 00:45:00;;;;;;;3.4;3.3;;;;;;;0.8;100.0;102210;;;;
2023/03/02 00:46:07;;;;;;;3.4;3.3;;;;;;;0.8;100.0;102210;;;;
2023/03/02 00:47:00;;;;;;;3.4;3.3;;;;;;;0.8;100.0;102210;;;;
2023/03/02 00:48:00;;;;;;;3.4;3.3;;;;;;;0.7;100.0;102210;;;;
2023/03/02 00:49:00;;;;;;;3.4;3.3;;;;;;;0.7;100.0;102210;;;;
2023/03/02 00:50:01;;;;;;;3.4;3.3;;;;;;;0.8;100.0;102200;;;;
2023/03/02 00:51:00;;;;;;;3.4;3.3;;;;;;;0.8;100.0;102200;;;;
2023/03/02 00:52:00;;;;;;;3.4;3.3;;;;;;;0.9;100.0;102200;;;;
2023/03/02 00:53:00;;;;;;;3.4;3.3;;;;;;;0.9;100.0;102200;;;;
2023/03/02 00:54:01;;;;;;;3.4;3.3;;;;;;;0.7;100.0;102200;;;;
2023/03/02 00:55:00;;;;;;;3.4;3.3;;;;;;;0.7;100.0;102200;;;;
2023/03/02 00:56:01;;;;;;;3.4;3.3;;;;;;;0.8;100.0;102200;;;;
2023/03/02 00:57:00;;;;;;;3.4;3.3;;;;;;;0.8;100.0;102200;;;;
2023/03/02 00:58:00;;;;;;;3.4;3.3;;;;;;;0.8;100.0;102200;;;;
2023/03/02 00:59:25;;;;;;;3.4;3.3;;;;;;;0.8;100.0;102200;;;;
2023/03/02 01:00:00;;;;;;;3.4;3.3;;;;;;;0.7;100.0;102200;;;;
2023/03/02 01:01:05;;;;;;;3.4;3.3;;;;;;;0.7;100.0;102200;;;;
2023/03/02 01:02:00;;;;;;;3.4;3.3;;;;;;;0.7;100.0;102200;;;;
2023/03/02 01:03:00;;;;;;;3.4;3.3;;;;;;;0.7;100.0;102200;;;;
2023/03/02 01:04:00;;;;;;;3.4;3.3;;;;;;;0.6;100.0;102200;;;;
2023/03/02 01:05:00;;;;;;;3.6;3.5;;;;;;;0.6;100.0;102200;;;;
2023/03/02 01:06:00;;;;;;;3.6;3.5;;;;;;;0.6;100.0;102200;;;;
2023/03/02 01:07:02;;;;;;;3.6;3.5;;;;;;;0.6;100.0;102200;;;;
2023/03/02 01:08:00;;;;;;;3.6;3.5;;;;;;;0.6;100.0;102210;;;;
2023/03/02 01:09:00;;;;;;;3.6;3.5;;;;;;;0.6;100.0;102210;;;;
2023/03/02 01:10:00;;;;;;;3.6;3.5;;;;;;;0.5;100.0;102200;;;;
2023/03/02 01:11:00;;;;;;;3.6;3.5;;;;;;;0.5;100.0;102200;;;;
2023/03/02 01:12:00;;;;;;;3.6;3.5;;;;;;;0.5;100.0;102200;;;;
2023/03/02 01:13:00;;;;;;;3.6;3.5;;;;;;;0.5;100.0;102200;;;;
2023/03/02 01:14:00;;;;;;;3.6;3.5;;;;;;;0.4;100.0;102200;;;;
2023/03/02 01:15:00;;;;;;;3.6;3.5;;;;;;;0.4;100.0;102200;;;;
2023/03/02 01:16:01;;;;;;;3.6;3.5;;;;;;;0.6;100.0;102200;;;;
2023/03/02 01:17:00;;;;;;;3.6;3.5;;;;;;;0.6;100.0;102200;;;;
2023/03/02 01:18:00;;;;;;;3.6;3.5;;;;;;;0.5;100.0;102200;;;;
2023/03/02 01:19:00;;;;;;;3.6;3.5;;;;;;;0.5;100.0;102200;;;;
2023/03/02 01:20:00;;;;;;;3.6;3.5;;;;;;;0.4;100.0;102200;;;;
2023/03/02 01:21:01;;;;;;;3.6;3.5;;;;;;;0.4;100.0;102200;;;;
2023/03/02 01:22:00;;;;;;;3.6;3.5;;;;;;;0.4;100.0;102210;;;;
2023/03/02 01:23:00;;;;;;;3.6;3.5;;;;;;;0.4;100.0;102210;;;;
2023/03/02 01:24:00;;;;;;;3.6;3.5;;;;;;;0.4;100.0;102210;;;;
2023/03/02 01:25:00;;;;;;;3.6;3.5;;;;;;;0.4;100.0;102210;;;;
2023/03/02 01:26:00;;;;;;;3.6;3.5;;;;;;;0.4;100.0;102210;;;;
2023/03/02 01:27:00;;;;;;;3.6;3.5;;;;;;;0.4;100.0;102210;;;;
2023/03/02 01:28:00;;;;;;;3.6;3.5;;;;;;;0.3;100.0;102210;;;;
2023/03/02 01:29:00;;;;;;;3.6;3.5;;;;;;;0.3;100.0;102210;;;;
2023/03/02 01:30:00;;;;;;;3.6;3.5;;;;;;;0.4;100.0;102210;;;;
2023/03/02 01:31:01;;;;;;;3.6;3.5;;;;;;;0.4;100.0;102210;;;;
2023/03/02 01:32:01;;;;;;;3.6;3.5;;;;;;;0.4;100.0;102200;;;;
2023/03/02 01:33:00;;;;;;;3.6;3.5;;;;;;;0.4;100.0;102200;;;;
2023/03/02 01:34:00;;;;;;;3.6;3.5;;;;;;;0.3;100.0;102200;;;;
2023/03/02 01:35:00;;;;;;;3.6;3.5;;;;;;;0.3;100.0;102200;;;;
2023/03/02 01:36:00;;;;;;;3.6;3.5;;;;;;;0.3;100.0;102200;;;;
2023/03/02 01:37:00;;;;;;;3.6;3.5;;;;;;;0.3;100.0;102200;;;;
2023/03/02 01:38:00;;;;;;;3.6;3.5;;;;;;;0.2;100.0;102200;;;;
2023/03/02 01:39:00;;;;;;;3.6;3.5;;;;;;;0.2;100.0;102200;;;;
2023/03/02 01:40:04;;;;;;;3.6;3.5;;;;;;;0.2;100.0;102200;;;;
2023/03/02 01:41:00;;;;;;;3.6;3.5;;;;;;;0.2;100.0;102200;;;;
2023/03/02 01:42:00;;;;;;;3.6;3.5;;;;;;;0.1;100.0;102200;;;;
2023/03/02 01:43:01;;;;;;;3.6;3.5;;;;;;;0.1;100.0;102200;;;;
2023/03/02 01:44:00;;;;;;;3.6;3.5;;;;;;;0.0;100.0;102190;;;;
2023/03/02 01:45:00;;;;;;;3.7;3.6;;;;;;;0.0;100.0;102190;;;;
2023/03/02 01:46:02;;;;;;;3.7;3.6;;;;;;;-0.0;100.0;102190;;;;
2023/03/02 01:47:01;;;;;;;3.7;3.6;;;;;;;-0.0;100.0;102190;;;;
2023/03/02 01:48:01;;;;;;;3.7;3.6;;;;;;;0.1;100.0;102190;;;;
2023/03/02 01:49:02;;;;;;;3.7;3.6;;;;;;;0.1;100.0;102190;;;;
2023/03/02 01:50:03;;;;;;;3.7;3.6;;;;;;;-0.0;100.0;102180;;;;
2023/03/02 01:51:01;;;;;;;3.7;3.6;;;;;;;-0.0;100.0;102180;;;;
2023/03/02 01:52:00;;;;;;;3.7;3.6;;;;;;;-0.1;100.0;102180;;;;
2023/03/02 01:53:00;;;;;;;3.7;3.6;;;;;;;-0.1;100.0;102180;;;;
2023/03/02 01:54:03;;;;;;;3.7;3.6;;;;;;;0.0;100.0;102180;;;;
2023/03/02 01:55:02;;;;;;;3.7;3.6;;;;;;;0.0;100.0;102180;;;;
2023/03/02 01:56:01;;;;;;;3.7;3.6;;;;;;;0.1;100.0;102180;;;;
2023/03/02 01:57:02;;;;;;;3.7;3.6;;;;;;;0.1;100.0;102180;;;;
2023/03/02 01:58:02;;;;;;;3.7;3.6;;;;;;;-0.0;100.0;102180;;;;
2023/03/02 01:59:04;;;;;;;3.7;3.6;;;;;;;-0.0;100.0;102180;;;;
2023/03/02 02:00:07;;;;;;;3.7;3.6;;;;;;;-0.0;100.0;102170;;;;
2023/03/02 02:01:00;;;;;;;3.7;3.6;;;;;;;-0.0;100.0;102170;;;;
2023/03/02 02:02:03;;;;;;;3.7;3.6;;;;;;;0.0;100.0;102170;;;;
2023/03/02 02:03:07;;;;;;;3.7;3.6;;;;;;;0.0;100.0;102170;;;;
2023/03/02 02:04:01;;;;;;;3.7;3.6;;;;;;;0.1;100.0;102170;;;;
2023/03/02 02:05:02;;;;;;;3.5;3.4;;;;;;;0.1;100.0;102170;;;;
2023/03/02 02:06:07;;;;;;;3.5;3.4;;;;;;;-0.1;100.0;102170;;;;
2023/03/02 02:07:02;;;;;;;3.5;3.4;;;;;;;-0.1;100.0;102170;;;;
2023/03/02 02:08:00;;;;;;;3.5;3.4;;;;;;;-0.0;100.0;102170;;;;
2023/03/02 02:09:02;;;;;;;3.5;3.4;;;;;;;-0.0;100.0;102170;;;;
2023/03/02 02:10:01;;;;;;;3.5;3.4;;;;;;;0.1;100.0;102170;;;;
2023/03/02 02:11:00;;;;;;;3.5;3.4;;;;;;;0.1;100.0;102170;;;;
2023/03/02 02:12:00;;;;;;;3.5;3.4;;;;;;;0.1;100.0;102170;;;;
2023/03/02 02:13:00;;;;;;;3.5;3.4;;;;;;;0.1;100.0;102170;;;;
2023/03/02 02:14:01;;;;;;;3.5;3.4;;;;;;;0.1;100.0;102170;;;;
2023/03/02 02:15:01;;;;;;;3.5;3.4;;;;;;;0.1;100.0;102170;;;;
2023/03/02 02:16:00;;;;;;;3.5;3.4;;;;;;;0.1;100.0;102170;;;;
2023/03/02 02:17:01;;;;;;;3.5;3.4;;;;;;;0.1;100.0;102170;;;;
2023/03/02 02:18:00;;;;;;;3.5;3.4;;;;;;;0.1;100.0;102160;;;;
2023/03/02 02:19:01;;;;;;;3.5;3.4;;;;;;;0.1;100.0;102160;;;;
2023/03/02 02:20:05;;;;;;;3.5;3.4;;;;;;;-0.0;100.0;102160;;;;
2023/03/02 02:21:01;;;;;;;3.5;3.4;;;;;;;-0.0;100.0;102160;;;;
2023/03/02 02:22:00;;;;;;;3.5;3.4;;;;;;;0.1;100.0;102160;;;;
2023/03/02 02:23:10;;;;;;;3.5;3.4;;;;;;;0.1;100.0;102160;;;;
2023/03/02 02:24:00;;;;;;;3.5;3.4;;;;;;;0.1;100.0;102160;;;;
2023/03/02 02:25:02;;;;;;;3.5;3.4;;;;;;;0.1;100.0;102160;;;;
2023/03/02 02:26:01;;;;;;;3.5;3.4;;;;;;;0.0;100.0;102160;;;;
2023/03/02 02:27:00;;;;;;;3.5;3.4;;;;;;;0.0;100.0;102160;;;;
2023/03/02 02:28:02;;;;;;;3.5;3.4;;;;;;;0.2;100.0;102160;;;;
2023/03/02 02:29:02;;;;;;;3.5;3.4;;;;;;;0.2;100.0;102160;;;;
2023/03/02 02:30:02;;;;;;;3.5;3.4;;;;;;;0.1;100.0;102160;;;;
2023/03/02 02:31:06;;;;;;;3.5;3.4;;;;;;;0.1;100.0;102160;;;;
2023/03/02 02:32:08;;;;;;;3.5;3.4;;;;;;;0.1;100.0;102160;;;;
2023/03/02 02:33:01;;;;;;;3.5;3.4;;;;;;;0.1;100.0;102160;;;;
2023/03/02 02:34:05;;;;;;;3.5;3.4;;;;;;;0.1;100.0;102160;;;;
2023/03/02 02:35:03;;;;;;;3.5;3.4;;;;;;;0.1;100.0;102160;;;;
2023/03/02 02:36:03;;;;;;;3.5;3.4;;;;;;;0.1;100.0;102150;;;;
2023/03/02 02:37:10;;;;;;;3.5;3.4;;;;;;;0.1;100.0;102150;;;;
2023/03/02 02:38:02;;;;;;;3.5;3.4;;;;;;;0.1;100.0;102160;;;;
2023/03/02 02:39:03;;;;;;;3.5;3.4;;;;;;;0.1;100.0;102160;;;;
2023/03/02 02:40:01;;;;;;;3.5;3.4;;;;;;;0.1;100.0;102160;;;;
2023/03/02 02:41:02;;;;;;;3.5;3.4;;;;;;;0.1;100.0;102160;;;;
2023/03/02 02:42:03;;;;;;;3.5;3.4;;;;;;;0.2;100.0;102160;;;;
2023/03/02 02:43:00;;;;;;;3.5;3.4;;;;;;;0.2;100.0;102160;;;;
2023/03/02 02:44:00;;;;;;;3.5;3.4;;;;;;;0.1;100.0;102160;;;;
2023/03/02 02:45:02;;;;;;;3.5;3.4;;;;;;;0.1;100.0;102160;;;;
2023/03/02 02:46:01;;;;;;;3.5;3.4;;;;;;;0.1;100.0;102150;;;;
2023/03/02 02:47:00;;;;;;;3.5;3.4;;;;;;;0.1;100.0;102150;;;;
2023/03/02 02:48:00;;;;;;;3.5;3.4;;;;;;;0.1;100.0;102150;;;;
2023/03/02 02:49:02;;;;;;;3.5;3.4;;;;;;;0.1;100.0;102150;;;;
2023/03/02 02:50:00;;;;;;;3.5;3.4;;;;;;;0.1;100.0;102150;;;;
2023/03/02 02:51:01;;;;;;;3.5;3.4;;;;;;;0.1;100.0;102150;;;;
2023/03/02 02:52:01;;;;;;;3.5;3.4;;;;;;;0.0;100.0;102150;;;;
2023/03/02 02:53:01;;;;;;;3.5;3.4;;;;;;;0.0;100.0;102150;;;;
2023/03/02 02:54:02;;;;;;;3.5;3.4;;;;;;;0.0;100.0;102150;;;;
2023/03/02 02:55:01;;;;;;;3.5;3.4;;;;;;;0.0;100.0;102150;;;;
2023/03/02 02:56:01;;;;;;;3.5;3.4;;;;;;;-0.1;100.0;102150;;;;
2023/03/02 02:57:02;;;;;;;3.5;3.4;;;;;;;-0.1;100.0;102150;;;;
2023/03/02 02:58:08;;;;;;;3.5;3.4;;;;;;;-0.1;100.0;102140;;;;
2023/03/02 02:59:04;;;;;;;3.5;3.4;;;;;;;-0.1;100.0;102140;;;;
2023/03/02 03:00:00;;;;;;;3.5;3.4;;;;;;;-0.1;100.0;102140;;;;
2023/03/02 03:01:01;;;;;;;3.5;3.4;;;;;;;-0.1;100.0;102140;;;;
2023/03/02 03:02:01;;;;;;;3.5;3.4;;;;;;;-0.1;100.0;102140;;;;
2023/03/02 03:03:04;;;;;;;3.5;3.4;;;;;;;-0.1;100.0;102140;;;;
2023/03/02 03:04:01;;;;;;;3.5;3.4;;;;;;;-0.1;100.0;102140;;;;
2023/03/02 03:05:01;;;;;;;3.5;3.4;;;;;;;-0.1;100.0;102140;;;;
2023/03/02 03:06:03;;;;;;;3.5;3.4;;;;;;;-0.1;100.0;102140;;;;
2023/03/02 03:07:02;;;;;;;3.5;3.4;;;;;;;-0.1;100.0;102140;;;;
2023/03/02 03:08:09;;;;;;;3.5;3.4;;;;;;;-0.1;100.0;102140;;;;
2023/03/02 03:09:00;;;;;;;3.5;3.4;;;;;;;-0.1;100.0;102140;;;;
2023/03/02 03:10:04;;;;;;;3.5;3.4;;;;;;;-0.1;100.0;102140;;;;
2023/03/02 03:11:01;;;;;;;3.5;3.4;;;;;;;-0.1;100.0;102140;;;;
2023/03/02 03:12:02;;;;;;;3.5;3.4;;;;;;;-0.2;100.0;102140;;;;
2023/03/02 03:13:01;;;;;;;3.5;3.4;;;;;;;-0.2;100.0;102140;;;;
2023/03/02 03:14:09;;;;;;;3.5;3.4;;;;;;;-0.1;100.0;102140;;;;
2023/03/02 03:15:01;;;;;;;3.5;3.4;;;;;;;-0.1;100.0;102140;;;;
2023/03/02 03:16:01;;;;;;;3.5;3.4;;;;;;;-0.2;100.0;102140;;;;
2023/03/02 03:17:00;;;;;;;3.5;3.4;;;;;;;-0.2;100.0;102140;;;;
2023/03/02 03:18:00;;;;;;;3.5;3.4;;;;;;;-0.2;100.0;102140;;;;
2023/03/02 03:19:05;;;;;;;3.5;3.4;;;;;;;-0.2;100.0;102140;;;;
2023/03/02 03:20:08;;;;;;;3.5;3.4;;;;;;;-0.2;100.0;102140;;;;
2023/03/02 03:21:00;;;;;;;3.5;3.4;;;;;;;-0.2;100.0;102140;;;;
2023/03/02 03:22:01;;;;;;;3.5;3.4;;;;;;;-0.3;100.0;102140;;;;
2023/03/02 03:23:00;;;;;;;3.5;3.4;;;;;;;-0.3;100.0;102140;;;;
2023/03/02 03:24:00;;;;;;;3.5;3.4;;;;;;;-0.2;100.0;102140;;;;
2023/03/02 03:25:00;;;;;;;3.6;3.5;;;;;;;-0.2;100.0;102140;;;;
2023/03/02 03:26:00;;;;;;;3.6;3.5;;;;;;;-0.2;100.0;102140;;;;
2023/03/02 03:27:04;;;;;;;3.6;3.5;;;;;;;-0.2;100.0;102140;;;;
2023/03/02 03:28:02;;;;;;;3.6;3.5;;;;;;;-0.2;100.0;102140;;;;
2023/03/02 03:29:00;;;;;;;3.6;3.5;;;;;;;-0.2;100.0;102140;;;;
2023/03/02 03:30:00;;;;;;;3.6;3.5;;;;;;;-0.1;100.0;102140;;;;
2023/03/02 03:31:00;;;;;;;3.6;3.5;;;;;;;-0.1;100.0;102140;;;;
2023/03/02 03:32:01;;;;;;;3.6;3.5;;;;;;;-0.1;100.0;102140;;;;
2023/03/02 03:33:00;;;;;;;3.6;3.5;;;;;;;-0.1;100.0;102140;;;;
2023/03/02 03:34:01;;;;;;;3.6;3.5;;;;;;;-0.2;100.0;102140;;;;
2023/03/02 03:35:01;;;;;;;3.6;3.5;;;;;;;-0.2;100.0;102140;;;;
2023/03/02 03:36:00;;;;;;;3.6;3.5;;;;;;;-0.3;100.0;102140;;;;
2023/03/02 03:37:00;;;;;;;3.6;3.5;;;;;;;-0.3;100.0;102140;;;;
2023/03/02 03:38:00;;;;;;;3.6;3.5;;;;;;;-0.2;100.0;102140;;;;
2023/03/02 03:39:00;;;;;;;3.6;3.5;;;;;;;-0.2;100.0;102140;;;;
2023/03/02 03:40:00;;;;;;;3.6;3.5;;;;;;;-0.2;100.0;102140;;;;
2023/03/02 03:41:00;;;;;;;3.6;3.5;;;;;;;-0.2;100.0;102140;;;;
2023/03/02 03:42:01;;;;;;;3.6;3.5;;;;;;;-0.1;100.0;102140;;;;
2023/03/02 03:43:01;;;;;;;3.6;3.5;;;;;;;-0.1;100.0;102140;;;;
2023/03/02 03:44:00;;;;;;;3.6;3.5;;;;;;;-0.2;100.0;102140;;;;
2023/03/02 03:45:00;;;;;;;3.5;3.4;;;;;;;-0.2;100.0;102140;;;;
2023/03/02 03:46:00;;;;;;;3.5;3.4;;;;;;;-0.2;100.0;102140;;;;
2023/03/02 03:47:01;;;;;;;3.5;3.4;;;;;;;-0.2;100.0;102140;;;;
2023/03/02 03:48:00;;;;;;;3.5;3.4;;;;;;;-0.3;100.0;102140;;;;
2023/03/02 03:49:00;;;;;;;3.5;3.4;;;;;;;-0.3;100.0;102140;;;;
2023/03/02 03:50:00;;;;;;;3.5;3.4;;;;;;;-0.2;100.0;102140;;;;
2023/03/02 03:51:00;;;;;;;3.5;3.4;;;;;;;-0.2;100.0;102140;;;;
2023/03/02 03:52:00;;;;;;;3.5;3.4;;;;;;;-0.2;100.0;102140;;;;
2023/03/02 03:53:03;;;;;;;3.5;3.4;;;;;;;-0.2;100.0;102140;;;;
2023/03/02 03:54:01;;;;;;;3.5;3.4;;;;;;;-0.2;100.0;102140;;;;
2023/03/02 03:55:00;;;;;;;3.5;3.4;;;;;;;-0.2;100.0;102140;;;;
2023/03/02 03:56:02;;;;;;;3.5;3.4;;;;;;;-0.2;100.0;102140;;;;
2023/03/02 03:57:00;;;;;;;3.5;3.4;;;;;;;-0.2;100.0;102140;;;;
2023/03/02 03:58:00;;;;;;;3.5;3.4;;;;;;;-0.3;100.0;102140;;;;
2023/03/02 03:59:08;;;;;;;3.5;3.4;;;;;;;-0.3;100.0;102140;;;;
2023/03/02 04:00:00;;;;;;;3.5;3.4;;;;;;;-0.2;100.0;102140;;;;
2023/03/02 04:01:00;;;;;;;3.5;3.4;;;;;;;-0.2;100.0;102140;;;;
2023/03/02 04:02:01;;;;;;;3.5;3.4;;;;;;;-0.2;100.0;102140;;;;
2023/03/02 04:03:00;;;;;;;3.5;3.4;;;;;;;-0.2;100.0;102140;;;;
2023/03/02 04:04:01;;;;;;;3.8;3.7;;;;;;;-0.2;100.0;102140;;;;
2023/03/02 04:05:05;;;;;;;3.8;3.7;;;;;;;-0.2;100.0;102140;;;;
2023/03/02 04:06:00;;;;;;;3.8;3.7;;;;;;;-0.2;100.0;102140;;;;
2023/03/02 04:07:00;;;;;;;3.8;3.7;;;;;;;-0.2;100.0;102140;;;;
2023/03/02 04:08:00;;;;;;;3.8;3.7;;;;;;;-0.2;100.0;102130;;;;
2023/03/02 04:09:03;;;;;;;3.8;3.7;;;;;;;-0.2;100.0;102130;;;;
2023/03/02 04:10:03;;;;;;;3.8;3.7;;;;;;;-0.2;100.0;102140;;;;
2023/03/02 04:11:00;;;;;;;3.8;3.7;;;;;;;-0.2;100.0;102140;;;;
2023/03/02 04:12:00;;;;;;;3.8;3.7;;;;;;;-0.3;100.0;102140;;;;
2023/03/02 04:13:00;;;;;;;3.8;3.7;;;;;;;-0.3;100.0;102140;;;;
2023/03/02 04:14:01;;;;;;;3.8;3.7;;;;;;;-0.2;100.0;102140;;;;
2023/03/02 04:15:00;;;;;;;3.8;3.7;;;;;;;-0.2;100.0;102140;;;;
2023/03/02 04:16:00;;;;;;;3.8;3.7;;;;;;;-0.2;100.0;102140;;;;
2023/03/02 04:17:04;;;;;;;3.8;3.7;;;;;;;-0.2;100.0;102140;;;;
2023/03/02 04:18:00;;;;;;;3.8;3.7;;;;;;;-0.2;100.0;102140;;;;
2023/03/02 04:19:00;;;;;;;3.8;3.7;;;;;;;-0.2;100.0;102140;;;;
2023/03/02 04:20:00;;;;;;;3.8;3.7;;;;;;;-0.3;100.0;102140;;;;
2023/03/02 04:21:00;;;;;;;3.8;3.7;;;;;;;-0.3;100.0;102140;;;;
2023/03/02 04:22:02;;;;;;;3.8;3.7;;;;;;;-0.2;100.0;102140;;;;
2023/03/02 04:23:00;;;;;;;3.8;3.7;;;;;;;-0.2;100.0;102140;;;;
2023/03/02 04:24:00;;;;;;;4.2;4.1;;;;;;;-0.3;100.0;102140;;;;
2023/03/02 04:25:00;;;;;;;4.2;4.1;;;;;;;-0.3;100.0;102140;;;;
2023/03/02 04:26:03;;;;;;;4.2;4.1;;;;;;;-0.4;100.0;102140;;;;
2023/03/02 04:27:00;;;;;;;4.2;4.1;;;;;;;-0.4;100.0;102140;;;;
2023/03/02 04:28:00;;;;;;;4.2;4.1;;;;;;;-0.3;100.0;102140;;;;
2023/03/02 04:29:01;;;;;;;4.2;4.1;;;;;;;-0.3;100.0;102140;;;;
2023/03/02 04:30:00;;;;;;;4.2;4.1;;;;;;;-0.3;100.0;102150;;;;
2023/03/02 04:31:00;;;;;;;4.2;4.1;;;;;;;-0.3;100.0;102150;;;;
2023/03/02 04:32:00;;;;;;;4.2;4.1;;;;;;;-0.3;100.0;102150;;;;
2023/03/02 04:33:00;;;;;;;4.2;4.1;;;;;;;-0.3;100.0;102150;;;;
2023/03/02 04:34:03;;;;;;;4.2;4.1;;;;;;;-0.3;100.0;102150;;;;
2023/03/02 04:35:00;;;;;;;4.2;4.1;;;;;;;-0.3;100.0;102150;;;;
2023/03/02 04:36:00;;;;;;;4.2;4.1;;;;;;;-0.2;100.0;102150;;;;
2023/03/02 04:37:00;;;;;;;4.2;4.1;;;;;;;-0.2;100.0;102150;;;;
2023/03/02 04:38:00;;;;;;;4.2;4.1;;;;;;;-0.2;100.0;102150;;;;
2023/03/02 04:39:01;;;;;;;4.2;4.1;;;;;;;-0.2;100.0;102150;;;;
2023/03/02 04:40:00;;;;;;;4.2;4.1;;;;;;;-0.2;100.0;102150;;;;
2023/03/02 04:41:00;;;;;;;4.2;4.1;;;;;;;-0.2;100.0;102150;;;;
2023/03/02 04:42:00;;;;;;;4.2;4.1;;;;;;;-0.3;100.0;102150;;;;
2023/03/02 04:43:00;;;;;;;4.2;4.1;;;;;;;-0.3;100.0;102150;;;;
2023/03/02 04:44:00;;;;;;;4.0;3.9;;;;;;;-0.3;100.0;102150;;;;
2023/03/02 04:45:00;;;;;;;4.0;3.9;;;;;;;-0.3;100.0;102150;;;;
2023/03/02 04:46:00;;;;;;;4.0;3.9;;;;;;;-0.3;100.0;102150;;;;
2023/03/02 04:47:00;;;;;;;4.0;3.9;;;;;;;-0.3;100.0;102150;;;;
2023/03/02 04:48:00;;;;;;;4.0;3.9;;;;;;;-0.3;100.0;102140;;;;
2023/03/02 04:49:00;;;;;;;4.0;3.9;;;;;;;-0.3;100.0;102140;;;;
2023/03/02 04:50:00;;;;;;;4.0;3.9;;;;;;;-0.3;100.0;102140;;;;
2023/03/02 04:51:00;;;;;;;4.0;3.9;;;;;;;-0.3;100.0;102140;;;;
2023/03/02 04:52:00;;;;;;;4.0;3.9;;;;;;;-0.4;100.0;102140;;;;
2023/03/02 04:53:00;;;;;;;4.0;3.9;;;;;;;-0.4;100.0;102140;;;;
2023/03/02 04:54:02;;;;;;;4.0;3.9;;;;;;;-0.4;100.0;102140;;;;
2023/03/02 04:55:00;;;;;;;4.0;3.9;;;;;;;-0.4;100.0;102140;;;;
2023/03/02 04:56:00;;;;;;;4.0;3.9;;;;;;;-0.5;100.0;102140;;;;
2023/03/02 04:57:00;;;;;;;4.0;3.9;;;;;;;-0.5;100.0;102140;;;;
2023/03/02 04:58:00;;;;;;;4.0;3.9;;;;;;;-0.5;100.0;102140;;;;
2023/03/02 04:59:00;;;;;;;4.0;3.9;;;;;;;-0.5;100.0;102140;;;;
2023/03/02 05:00:00;;;;;;;4.0;3.9;;;;;;;-0.5;100.0;102140;;;;
2023/03/02 05:01:02;;;;;;;4.0;3.9;;;;;;;-0.5;100.0;102140;;;;
2023/03/02 05:02:00;;;;;;;4.0;3.9;;;;;;;-0.5;100.0;102140;;;;
2023/03/02 05:03:01;;;;;;;4.0;3.9;;;;;;;-0.5;100.0;102140;;;;
2023/03/02 05:04:03;;;;;;;4.0;3.9;;;;;;;-0.6;100.0;102150;;;;
2023/03/02 05:05:00;;;;;;;4.0;3.9;;;;;;;-0.6;100.0;102150;;;;
2023/03/02 05:06:02;;;;;;;4.0;3.9;;;;;;;-0.6;100.0;102140;;;;
2023/03/02 05:07:00;;;;;;;4.0;3.9;;;;;;;-0.6;100.0;102140;;;;
2023/03/02 05:08:00;;;;;;;4.0;3.9;;;;;;;-0.5;100.0;102140;;;;
2023/03/02 05:09:00;;;;;;;4.0;3.9;;;;;;;-0.5;100.0;102140;;;;
2023/03/02 05:10:00;;;;;;;4.0;3.9;;;;;;;-0.5;100.0;102140;;;;
2023/03/02 05:11:00;;;;;;;4.0;3.9;;;;;;;-0.5;100.0;102140;;;;
2023/03/02 05:12:00;;;;;;;4.0;3.9;;;;;;;-0.6;100.0;102140;;;;
2023/03/02 05:13:01;;;;;;;4.0;3.9;;;;;;;-0.6;100.0;102140;;;;
2023/03/02 05:14:01;;;;;;;4.0;3.9;;;;;;;-0.6;100.0;102150;;;;
2023/03/02 05:15:00;;;;;;;4.0;3.9;;;;;;;-0.6;100.0;102150;;;;
2023/03/02 05:16:00;;;;;;;4.0;3.9;;;;;;;-0.5;100.0;102140;;;;
2023/03/02 05:17:00;;;;;;;4.0;3.9;;;;;;;-0.5;100.0;102140;;;;
2023/03/02 05:18:01;;;;;;;4.0;3.9;;;;;;;-0.6;100.0;102150;;;;
2023/03/02 05:19:01;;;;;;;4.0;3.9;;;;;;;-0.6;100.0;102150;;;;
2023/03/02 05:20:00;;;;;;;4.0;3.9;;;;;;;-0.6;100.0;102150;;;;
2023/03/02 05:21:00;;;;;;;4.0;3.9;;;;;;;-0.6;100.0;102150;;;;
2023/03/02 05:22:00;;;;;;;4.0;3.9;;;;;;;-0.7;100.0;102150;;;;
2023/03/02 05:23:02;;;;;;;4.0;3.9;;;;;;;-0.7;100.0;102150;;;;
2023/03/02 05:24:02;;;;;;;4.5;4.4;;;;;;;-0.7;100.0;102140;;;;
2023/03/02 05:25:00;;;;;;;4.5;4.4;;;;;;;-0.7;100.0;102140;;;;
2023/03/02 05:26:00;;;;;;;4.5;4.4;;;;;;;-0.6;100.0;102150;;;;
2023/03/02 05:27:00;;;;;;;4.5;4.4;;;;;;;-0.6;100.0;102150;;;;
2023/03/02 05:28:01;;;;;;;4.5;4.4;;;;;;;-0.7;100.0;102150;;;;
2023/03/02 05:29:00;;;;;;;4.5;4.4;;;;;;;-0.7;100.0;102150;;;;
2023/03/02 05:30:00;;;;;;;4.5;4.4;;;;;;;-0.7;100.0;102140;;;;
2023/03/02 05:31:01;;;;;;;4.5;4.4;;;;;;;-0.7;100.0;102140;;;;
2023/03/02 05:32:00;;;;;;;4.5;4.4;;;;;;;-0.7;100.0;102150;;;;
2023/03/02 05:33:00;;;;;;;4.5;4.4;;;;;;;-0.7;100.0;102150;;;;
2023/03/02 05:34:01;;;;;;;4.5;4.4;;;;;;;-0.7;100.0;102150;;;;
2023/03/02 05:35:00;;;;;;;4.5;4.4;;;;;;;-0.7;100.0;102150;;;;
2023/03/02 05:36:00;;;;;;;4.5;4.4;;;;;;;-0.6;100.0;102150;;;;
2023/03/02 05:37:00;;;;;;;4.5;4.4;;;;;;;-0.6;100.0;102150;;;;
2023/03/02 05:38:00;;;;;;;4.5;4.4;;;;;;;-0.6;100.0;102140;;;;
2023/03/02 05:39:00;;;;;;;4.5;4.4;;;;;;;-0.6;100.0;102140;;;;
2023/03/02 05:40:00;;;;;;;4.5;4.4;;;;;;;-0.6;100.0;102140;;;;
2023/03/02 05:41:00;;;;;;;4.5;4.4;;;;;;;-0.6;100.0;102140;;;;
2023/03/02 05:42:00;;;;;;;4.5;4.4;;;;;;;-0.7;100.0;102140;;;;
2023/03/02 05:43:00;;;;;;;4.5;4.4;;;;;;;-0.7;100.0;102140;;;;
2023/03/02 05:44:00;;;;;;;4.0;3.9;;;;;;;-0.7;100.0;102150;;;;
2023/03/02 05:45:01;;;;;;;4.0;3.9;;;;;;;-0.7;100.0;102150;;;;
2023/03/02 05:46:01;;;;;;;4.0;3.9;;;;;;;-0.7;100.0;102150;;;;
2023/03/02 05:47:00;;;;;;;4.0;3.9;;;;;;;-0.7;100.0;102150;;;;
2023/03/02 05:48:00;;;;;;;4.0;3.9;;;;;;;-0.9;100.0;102150;;;;
2023/03/02 05:49:00;;;;;;;4.0;3.9;;;;;;;-0.9;100.0;102150;;;;
2023/03/02 05:50:00;;;;;;;4.0;3.9;;;;;;;-0.8;100.0;102150;;;;
2023/03/02 05:51:00;;;;;;;4.0;3.9;;;;;;;-0.8;100.0;102150;;;;
2023/03/02 05:52:00;;;;;;;4.0;3.9;;;;;;;-0.8;100.0;102150;;;;
2023/03/02 05:53:01;;;;;;;4.0;3.9;;;;;;;-0.8;100.0;102150;;;;
2023/03/02 05:54:01;;;;;;;4.0;3.9;;;;;;;-0.9;100.0;102140;;;;
2023/03/02 05:55:00;;;;;;;4.0;3.9;;;;;;;-0.9;100.0;102140;;;;
2023/03/02 05:56:00;;;;;;;4.0;3.9;;;;;;;-0.9;100.0;102140;;;;
2023/03/02 05:57:00;;;;;;;4.0;3.9;;;;;;;-0.9;100.0;102140;;;;
2023/03/02 05:58:01;;;;;;;4.0;3.9;;;;;;;-0.9;100.0;102140;;;;
2023/03/02 05:59:00;;;;;;;4.0;3.9;;;;;;;-0.9;100.0;102140;;;;
2023/03/02 06:00:00;;;;;;;4.0;3.9;;;;;;;-0.9;100.0;102140;;;;
2023/03/02 06:01:00;;;;;;;4.0;3.9;;;;;;;-0.9;100.0;102140;;;;
2023/03/02 06:02:00;;;;;;;4.0;3.9;;;;;;;-0.8;100.0;102140;;;;
2023/03/02 06:03:00;;;;;;;4.0;3.9;;;;;;;-0.8;100.0;102140;;;;
2023/03/02 06:04:00;;;;;;;3.8;3.7;;;;;;;-0.9;100.0;102150;;;;
2023/03/02 06:05:00;;;;;;;3.8;3.7;;;;;;;-0.9;100.0;102150;;;;
2023/03/02 06:06:00;;;;;;;3.8;3.7;;;;;;;-0.8;100.0;102150;;;;
2023/03/02 06:07:00;;;;;;;3.8;3.7;;;;;;;-0.8;100.0;102150;;;;
2023/03/02 06:08:00;;;;;;;3.8;3.7;;;;;;;-0.9;100.0;102150;;;;
2023/03/02 06:09:00;;;;;;;3.8;3.7;;;;;;;-0.9;100.0;102150;;;;
2023/03/02 06:10:00;;;;;;;3.8;3.7;;;;;;;-0.9;100.0;102150;;;;
2023/03/02 06:11:00;;;;;;;3.8;3.7;;;;;;;-0.9;100.0;102150;;;;
2023/03/02 06:12:00;;;;;;;3.8;3.7;;;;;;;-0.9;100.0;102150;;;;
2023/03/02 06:13:00;;;;;;;3.8;3.7;;;;;;;-0.9;100.0;102150;;;;
2023/03/02 06:14:00;;;;;;;3.8;3.7;;;;;;;-0.9;100.0;102150;;;;
2023/03/02 06:15:00;;;;;;;3.8;3.7;;;;;;;-0.9;100.0;102150;;;;
2023/03/02 06:16:00;;;;;;;3.8;3.7;;;;;;;-0.9;100.0;102150;;;;
2023/03/02 06:17:00;;;;;;;3.8;3.7;;;;;;;-0.9;100.0;102150;;;;
2023/03/02 06:18:00;;;;;;;3.8;3.7;;;;;;;-0.9;100.0;102140;;;;
2023/03/02 06:19:00;;;;;;;3.8;3.7;;;;;;;-0.9;100.0;102140;;;;
2023/03/02 06:20:00;;;;;;;3.8;3.7;;;;;;;-1.0;100.0;102140;;;;
2023/03/02 06:21:00;;;;;;;3.8;3.7;;;;;;;-1.0;100.0;102140;;;;
2023/03/02 06:22:00;;;;;;;3.8;3.7;;;;;;;-0.9;100.0;102140;;;;
2023/03/02 06:23:00;;;;;;;3.8;3.7;;;;;;;-0.9;100.0;102140;;;;
2023/03/02 06:24:00;;;;;;;4.0;3.9;;;;;;;-0.8;100.0;102150;;;;
2023/03/02 06:25:00;;;;;;;4.0;3.9;;;;;;;-0.8;100.0;102150;;;;
2023/03/02 06:26:05;;;;;;;4.0;3.9;;;;;;;-0.9;100.0;102150;;;;